sensor_id;sensor_type;location;lat;lon;timestamp;P1;durP1;ratioP1;P2;durP2;ratioP2
11651;SDS011;5882;48.818;9.114;2023-03-01T00:02:10;8.07;;;5.47;;
11651;SDS011;5882;48.818;9.114;2023-03-01T00:05:24;8.23;;;5.17;;
11651;SDS011;5882;48.818;9.114;2023-03-01T00:17:45;6.37;;;5.07;;
11651;SDS011;5882;48.818;9.114;2023-03-01T00:20:51;8.00;;;5.17;;
11651;SDS011;5882;48.818;9.114;2023-03-01T00:26:56;7.83;;;4.67;;
11651;SDS011;5882;48.818;9.114;2023-03-01T00:29:23;6.00;;;4.00;;
11651;SDS011;5882;48.818;9.114;2023-03-01T00:32:13;9.23;;;5.10;;
11651;SDS011;5882;48.818;9.114;2023-03-01T00:41:46;6.60;;;4.90;;
11651;SDS011;5882;48.818;9.114;2023-03-01T00:44:50;10.13;;;5.57;;
11651;SDS011;5882;48.818;9.114;2023-03-01T00:47:43;8.20;;;5.13;;
11651;SDS011;5882;48.818;9.114;2023-03-01T00:50:32;8.67;;;5.13;;
11651;SDS011;5882;48.818;9.114;2023-03-01T00:53:22;9.90;;;5.40;;
11651;SDS011;5882;48.818;9.114;2023-03-01T00:59:28;8.23;;;5.00;;
11651;SDS011;5882;48.818;9.114;2023-03-01T01:19:25;9.67;;;5.97;;
11651;SDS011;5882;48.818;9.114;2023-03-01T01:22:26;7.53;;;5.47;;
11651;SDS011;5882;48.818;9.114;2023-03-01T01:25:06;9.20;;;4.13;;
11651;SDS011;5882;48.818;9.114;2023-03-01T01:28:21;8.80;;;4.77;;
11651;SDS011;5882;48.818;9.114;2023-03-01T01:30:58;8.90;;;5.17;;
11651;SDS011;5882;48.818;9.114;2023-03-01T01:34:04;7.53;;;5.27;;
11651;SDS011;5882;48.818;9.114;2023-03-01T01:37:27;5.60;;;4.60;;
11651;SDS011;5882;48.818;9.114;2023-03-01T01:43:00;12.93;;;5.63;;
11651;SDS011;5882;48.818;9.114;2023-03-01T01:45:28;7.30;;;5.27;;
11651;SDS011;5882;48.818;9.114;2023-03-01T01:48:03;6.93;;;5.10;;
11651;SDS011;5882;48.818;9.114;2023-03-01T01:50:53;7.13;;;4.70;;
11651;SDS011;5882;48.818;9.114;2023-03-01T01:53:25;7.77;;;4.97;;
11651;SDS011;5882;48.818;9.114;2023-03-01T01:56:03;7.20;;;5.10;;
11651;SDS011;5882;48.818;9.114;2023-03-01T01:58:38;6.63;;;4.67;;
11651;SDS011;5882;48.818;9.114;2023-03-01T02:01:18;6.47;;;5.37;;
11651;SDS011;5882;48.818;9.114;2023-03-01T02:03:53;7.10;;;5.03;;
11651;SDS011;5882;48.818;9.114;2023-03-01T02:06:46;6.73;;;4.83;;
11651;SDS011;5882;48.818;9.114;2023-03-01T02:37:07;6.97;;;5.17;;
11651;SDS011;5882;48.818;9.114;2023-03-01T02:40:30;5.43;;;4.77;;
11651;SDS011;5882;48.818;9.114;2023-03-01T02:43:46;6.80;;;3.97;;
11651;SDS011;5882;48.818;9.114;2023-03-01T02:46:26;6.13;;;4.87;;
11651;SDS011;5882;48.818;9.114;2023-03-01T02:48:54;8.37;;;5.63;;
11651;SDS011;5882;48.818;9.114;2023-03-01T02:54:52;7.10;;;4.93;;
11651;SDS011;5882;48.818;9.114;2023-03-01T03:00:33;8.30;;;5.33;;
11651;SDS011;5882;48.818;9.114;2023-03-01T03:06:38;7.43;;;4.80;;
11651;SDS011;5882;48.818;9.114;2023-03-01T03:09:30;8.73;;;5.50;;
11651;SDS011;5882;48.818;9.114;2023-03-01T03:19:01;8.20;;;5.07;;
11651;SDS011;5882;48.818;9.114;2023-03-01T03:22:06;6.40;;;5.07;;
11651;SDS011;5882;48.818;9.114;2023-03-01T03:28:30;7.10;;;4.73;;
11651;SDS011;5882;48.818;9.114;2023-03-01T03:31:11;7.87;;;5.30;;
11651;SDS011;5882;48.818;9.114;2023-03-01T03:33:50;7.33;;;5.77;;
11651;SDS011;5882;48.818;9.114;2023-03-01T03:39:54;6.57;;;5.13;;
11651;SDS011;5882;48.818;9.114;2023-03-01T03:42:59;11.53;;;5.80;;
11651;SDS011;5882;48.818;9.114;2023-03-01T03:48:41;7.40;;;4.77;;
11651;SDS011;5882;48.818;9.114;2023-03-01T03:54:24;8.50;;;5.27;;
11651;SDS011;5882;48.818;9.114;2023-03-01T04:00:29;8.67;;;6.10;;
11651;SDS011;5882;48.818;9.114;2023-03-01T04:03:28;10.40;;;5.47;;
11651;SDS011;5882;48.818;9.114;2023-03-01T04:06:19;9.50;;;5.50;;
11651;SDS011;5882;48.818;9.114;2023-03-01T04:09:00;9.57;;;5.73;;
11651;SDS011;5882;48.818;9.114;2023-03-01T04:15:08;6.63;;;4.57;;
11651;SDS011;5882;48.818;9.114;2023-03-01T04:18:08;8.33;;;5.47;;
11651;SDS011;5882;48.818;9.114;2023-03-01T04:21:14;6.80;;;5.20;;
11651;SDS011;5882;48.818;9.114;2023-03-01T04:23:48;6.23;;;4.77;;
11651;SDS011;5882;48.818;9.114;2023-03-01T04:35:13;8.87;;;5.83;;
11651;SDS011;5882;48.818;9.114;2023-03-01T04:38:20;11.67;;;7.40;;
11651;SDS011;5882;48.818;9.114;2023-03-01T04:41:02;19.23;;;10.23;;
11651;SDS011;5882;48.818;9.114;2023-03-01T04:43:37;17.53;;;9.13;;
11651;SDS011;5882;48.818;9.114;2023-03-01T04:46:05;18.67;;;9.70;;
11651;SDS011;5882;48.818;9.114;2023-03-01T04:48:53;20.37;;;8.73;;
11651;SDS011;5882;48.818;9.114;2023-03-01T04:57:41;12.07;;;7.07;;
11651;SDS011;5882;48.818;9.114;2023-03-01T05:00:16;9.50;;;5.80;;
11651;SDS011;5882;48.818;9.114;2023-03-01T05:03:25;7.10;;;4.97;;
11651;SDS011;5882;48.818;9.114;2023-03-01T05:06:17;8.07;;;5.63;;
11651;SDS011;5882;48.818;9.114;2023-03-01T05:09:22;9.73;;;5.50;;
11651;SDS011;5882;48.818;9.114;2023-03-01T05:12:36;8.30;;;5.23;;
11651;SDS011;5882;48.818;9.114;2023-03-01T05:15:37;9.00;;;5.80;;
11651;SDS011;5882;48.818;9.114;2023-03-01T05:18:18;7.60;;;5.73;;
11651;SDS011;5882;48.818;9.114;2023-03-01T05:20:44;7.50;;;5.37;;
11651;SDS011;5882;48.818;9.114;2023-03-01T05:23:12;9.80;;;5.37;;
11651;SDS011;5882;48.818;9.114;2023-03-01T05:26:26;12.10;;;5.17;;
11651;SDS011;5882;48.818;9.114;2023-03-01T05:32:10;10.13;;;6.47;;
11651;SDS011;5882;48.818;9.114;2023-03-01T05:36:27;11.00;;;5.13;;
11651;SDS011;5882;48.818;9.114;2023-03-01T05:38:39;8.27;;;5.60;;
11651;SDS011;5882;48.818;9.114;2023-03-01T05:41:15;9.87;;;5.63;;
11651;SDS011;5882;48.818;9.114;2023-03-01T05:44:01;11.63;;;6.07;;
11651;SDS011;5882;48.818;9.114;2023-03-01T05:50:10;8.17;;;5.60;;
11651;SDS011;5882;48.818;9.114;2023-03-01T05:56:25;7.67;;;5.63;;
11651;SDS011;5882;48.818;9.114;2023-03-01T05:59:31;7.87;;;4.83;;
11651;SDS011;5882;48.818;9.114;2023-03-01T06:02:00;13.20;;;6.13;;
11651;SDS011;5882;48.818;9.114;2023-03-01T06:04:41;8.63;;;5.37;;
11651;SDS011;5882;48.818;9.114;2023-03-01T06:07:33;9.60;;;5.63;;
11651;SDS011;5882;48.818;9.114;2023-03-01T06:10:47;7.13;;;5.77;;
11651;SDS011;5882;48.818;9.114;2023-03-01T06:13:17;7.67;;;5.27;;
11651;SDS011;5882;48.818;9.114;2023-03-01T06:15:54;9.97;;;5.73;;
11651;SDS011;5882;48.818;9.114;2023-03-01T06:18:32;8.03;;;5.40;;
11651;SDS011;5882;48.818;9.114;2023-03-01T06:21:07;8.60;;;5.80;;
11651;SDS011;5882;48.818;9.114;2023-03-01T06:23:41;7.33;;;5.57;;
11651;SDS011;5882;48.818;9.114;2023-03-01T06:26:16;9.20;;;6.43;;
11651;SDS011;5882;48.818;9.114;2023-03-01T06:28:52;7.90;;;5.97;;
11651;SDS011;5882;48.818;9.114;2023-03-01T06:34:32;9.10;;;5.33;;
11651;SDS011;5882;48.818;9.114;2023-03-01T06:43:35;10.23;;;5.37;;
11651;SDS011;5882;48.818;9.114;2023-03-01T06:46:15;9.43;;;5.93;;
11651;SDS011;5882;48.818;9.114;2023-03-01T06:49:09;9.37;;;5.17;;
11651;SDS011;5882;48.818;9.114;2023-03-01T06:51:52;10.77;;;5.53;;
11651;SDS011;5882;48.818;9.114;2023-03-01T06:54:19;7.67;;;5.53;;
11651;SDS011;5882;48.818;9.114;2023-03-01T06:56:47;8.97;;;5.70;;
11651;SDS011;5882;48.818;9.114;2023-03-01T07:02:16;7.30;;;5.10;;
11651;SDS011;5882;48.818;9.114;2023-03-01T07:04:42;8.90;;;5.73;;
11651;SDS011;5882;48.818;9.114;2023-03-01T07:13:23;8.50;;;5.43;;
11651;SDS011;5882;48.818;9.114;2023-03-01T07:16:26;8.37;;;6.07;;
11651;SDS011;5882;48.818;9.114;2023-03-01T07:19:00;9.77;;;5.90;;
11651;SDS011;5882;48.818;9.114;2023-03-01T07:21:26;9.20;;;6.33;;
11651;SDS011;5882;48.818;9.114;2023-03-01T07:23:53;11.97;;;6.57;;
11651;SDS011;5882;48.818;9.114;2023-03-01T07:26:20;9.90;;;6.70;;
11651;SDS011;5882;48.818;9.114;2023-03-01T07:28:54;9.93;;;6.27;;
11651;SDS011;5882;48.818;9.114;2023-03-01T07:31:24;9.73;;;6.27;;
11651;SDS011;5882;48.818;9.114;2023-03-01T07:33:53;6.97;;;4.97;;
11651;SDS011;5882;48.818;9.114;2023-03-01T07:36:22;12.50;;;6.20;;
11651;SDS011;5882;48.818;9.114;2023-03-01T07:38:51;7.63;;;6.30;;
11651;SDS011;5882;48.818;9.114;2023-03-01T07:41:18;8.20;;;5.67;;
11651;SDS011;5882;48.818;9.114;2023-03-01T07:43:47;8.27;;;5.60;;
11651;SDS011;5882;48.818;9.114;2023-03-01T07:46:19;12.27;;;7.03;;
11651;SDS011;5882;48.818;9.114;2023-03-01T07:55:08;8.93;;;5.87;;
11651;SDS011;5882;48.818;9.114;2023-03-01T07:57:35;11.20;;;5.23;;
11651;SDS011;5882;48.818;9.114;2023-03-01T08:00:02;9.43;;;5.83;;
11651;SDS011;5882;48.818;9.114;2023-03-01T08:02:29;9.23;;;6.27;;
11651;SDS011;5882;48.818;9.114;2023-03-01T08:04:56;8.53;;;6.07;;
11651;SDS011;5882;48.818;9.114;2023-03-01T08:07:22;11.00;;;6.57;;
11651;SDS011;5882;48.818;9.114;2023-03-01T08:10:00;11.00;;;6.17;;
11651;SDS011;5882;48.818;9.114;2023-03-01T08:16:09;13.03;;;6.30;;
11651;SDS011;5882;48.818;9.114;2023-03-01T08:22:30;7.90;;;5.53;;
11651;SDS011;5882;48.818;9.114;2023-03-01T08:25:13;8.13;;;5.97;;
11651;SDS011;5882;48.818;9.114;2023-03-01T08:27:50;8.80;;;5.87;;
11651;SDS011;5882;48.818;9.114;2023-03-01T08:30:33;7.67;;;5.40;;
11651;SDS011;5882;48.818;9.114;2023-03-01T08:36:19;13.97;;;6.33;;
11651;SDS011;5882;48.818;9.114;2023-03-01T08:41:44;7.17;;;5.50;;
11651;SDS011;5882;48.818;9.114;2023-03-01T08:44:12;9.00;;;6.10;;
11651;SDS011;5882;48.818;9.114;2023-03-01T08:47:15;7.17;;;5.07;;
11651;SDS011;5882;48.818;9.114;2023-03-01T08:50:04;7.97;;;5.77;;
11651;SDS011;5882;48.818;9.114;2023-03-01T08:52:51;9.13;;;5.73;;
11651;SDS011;5882;48.818;9.114;2023-03-01T08:55:20;7.90;;;5.50;;
11651;SDS011;5882;48.818;9.114;2023-03-01T08:57:47;9.23;;;5.57;;
11651;SDS011;5882;48.818;9.114;2023-03-01T09:00:14;10.50;;;5.73;;
11651;SDS011;5882;48.818;9.114;2023-03-01T09:02:46;12.43;;;6.67;;
11651;SDS011;5882;48.818;9.114;2023-03-01T09:05:16;12.37;;;6.90;;
11651;SDS011;5882;48.818;9.114;2023-03-01T09:07:47;11.30;;;7.13;;
11651;SDS011;5882;48.818;9.114;2023-03-01T09:10:14;9.83;;;6.37;;
11651;SDS011;5882;48.818;9.114;2023-03-01T09:12:44;11.03;;;6.43;;
11651;SDS011;5882;48.818;9.114;2023-03-01T09:15:14;9.43;;;6.23;;
11651;SDS011;5882;48.818;9.114;2023-03-01T09:17:43;11.07;;;6.63;;
11651;SDS011;5882;48.818;9.114;2023-03-01T09:20:10;9.73;;;6.07;;
11651;SDS011;5882;48.818;9.114;2023-03-01T09:22:39;10.57;;;6.30;;
11651;SDS011;5882;48.818;9.114;2023-03-01T09:25:19;7.87;;;5.90;;
11651;SDS011;5882;48.818;9.114;2023-03-01T09:28:12;10.77;;;6.30;;
11651;SDS011;5882;48.818;9.114;2023-03-01T09:30:39;9.63;;;5.73;;
11651;SDS011;5882;48.818;9.114;2023-03-01T09:33:05;10.53;;;6.80;;
11651;SDS011;5882;48.818;9.114;2023-03-01T09:35:35;11.23;;;6.20;;
11651;SDS011;5882;48.818;9.114;2023-03-01T09:38:02;10.50;;;6.47;;
11651;SDS011;5882;48.818;9.114;2023-03-01T09:40:30;7.70;;;5.33;;
11651;SDS011;5882;48.818;9.114;2023-03-01T09:45:23;6.17;;;5.57;;
11651;SDS011;5882;48.818;9.114;2023-03-01T09:50:15;9.93;;;5.77;;
11651;SDS011;5882;48.818;9.114;2023-03-01T09:53:05;8.57;;;5.53;;
11651;SDS011;5882;48.818;9.114;2023-03-01T09:55:38;8.27;;;6.63;;
11651;SDS011;5882;48.818;9.114;2023-03-01T09:58:17;10.97;;;6.90;;
11651;SDS011;5882;48.818;9.114;2023-03-01T10:00:49;7.30;;;5.50;;
11651;SDS011;5882;48.818;9.114;2023-03-01T10:03:17;8.20;;;6.37;;
11651;SDS011;5882;48.818;9.114;2023-03-01T10:08:56;8.90;;;5.70;;
11651;SDS011;5882;48.818;9.114;2023-03-01T10:11:35;9.27;;;5.83;;
11651;SDS011;5882;48.818;9.114;2023-03-01T10:14:15;10.67;;;6.57;;
11651;SDS011;5882;48.818;9.114;2023-03-01T10:16:54;11.17;;;7.10;;
11651;SDS011;5882;48.818;9.114;2023-03-01T10:19:32;9.03;;;5.80;;
11651;SDS011;5882;48.818;9.114;2023-03-01T10:22:10;8.83;;;5.73;;
11651;SDS011;5882;48.818;9.114;2023-03-01T10:24:41;10.33;;;6.00;;
11651;SDS011;5882;48.818;9.114;2023-03-01T10:27:16;8.77;;;5.70;;
11651;SDS011;5882;48.818;9.114;2023-03-01T10:29:55;11.60;;;6.63;;
11651;SDS011;5882;48.818;9.114;2023-03-01T10:32:23;11.37;;;6.67;;
11651;SDS011;5882;48.818;9.114;2023-03-01T10:34:51;9.40;;;6.38;;
11651;SDS011;5882;48.818;9.114;2023-03-01T10:37:19;9.68;;;6.53;;
11651;SDS011;5882;48.818;9.114;2023-03-01T10:39:57;9.53;;;6.57;;
11651;SDS011;5882;48.818;9.114;2023-03-01T10:42:28;14.63;;;7.13;;
11651;SDS011;5882;48.818;9.114;2023-03-01T10:45:09;12.07;;;6.88;;
11651;SDS011;5882;48.818;9.114;2023-03-01T10:48:02;8.75;;;6.10;;
11651;SDS011;5882;48.818;9.114;2023-03-01T10:51:06;13.97;;;7.13;;
11651;SDS011;5882;48.818;9.114;2023-03-01T10:53:34;11.00;;;6.60;;
11651;SDS011;5882;48.818;9.114;2023-03-01T10:56:07;9.55;;;6.38;;
11651;SDS011;5882;48.818;9.114;2023-03-01T10:58:36;10.32;;;7.10;;
11651;SDS011;5882;48.818;9.114;2023-03-01T11:01:27;7.22;;;5.60;;
11651;SDS011;5882;48.818;9.114;2023-03-01T11:04:09;12.38;;;6.25;;
11651;SDS011;5882;48.818;9.114;2023-03-01T11:06:41;10.23;;;6.38;;
11651;SDS011;5882;48.818;9.114;2023-03-01T11:12:47;9.10;;;6.18;;
11651;SDS011;5882;48.818;9.114;2023-03-01T11:15:30;9.43;;;6.13;;
11651;SDS011;5882;48.818;9.114;2023-03-01T11:18:05;9.10;;;6.28;;
11651;SDS011;5882;48.818;9.114;2023-03-01T11:20:56;11.30;;;6.40;;
11651;SDS011;5882;48.818;9.114;2023-03-01T11:23:36;10.38;;;6.13;;
11651;SDS011;5882;48.818;9.114;2023-03-01T11:26:23;11.82;;;6.43;;
11651;SDS011;5882;48.818;9.114;2023-03-01T11:29:14;9.70;;;6.22;;
11651;SDS011;5882;48.818;9.114;2023-03-01T11:32:05;9.20;;;6.10;;
11651;SDS011;5882;48.818;9.114;2023-03-01T11:34:51;11.50;;;6.70;;
11651;SDS011;5882;48.818;9.114;2023-03-01T11:37:26;10.57;;;6.40;;
11651;SDS011;5882;48.818;9.114;2023-03-01T11:40:05;10.15;;;5.57;;
11651;SDS011;5882;48.818;9.114;2023-03-01T11:42:40;12.32;;;7.05;;
11651;SDS011;5882;48.818;9.114;2023-03-01T11:45:28;10.65;;;6.95;;
11651;SDS011;5882;48.818;9.114;2023-03-01T11:51:12;9.05;;;6.00;;
11651;SDS011;5882;48.818;9.114;2023-03-01T11:53:50;9.70;;;5.65;;
11651;SDS011;5882;48.818;9.114;2023-03-01T11:56:23;10.88;;;6.78;;
11651;SDS011;5882;48.818;9.114;2023-03-01T11:58:58;10.15;;;6.05;;
11651;SDS011;5882;48.818;9.114;2023-03-01T12:01:30;9.98;;;5.85;;
11651;SDS011;5882;48.818;9.114;2023-03-01T12:04:10;9.25;;;5.80;;
11651;SDS011;5882;48.818;9.114;2023-03-01T12:06:49;8.50;;;7.10;;
11651;SDS011;5882;48.818;9.114;2023-03-01T12:09:20;9.63;;;6.18;;
11651;SDS011;5882;48.818;9.114;2023-03-01T12:11:53;9.40;;;6.25;;
11651;SDS011;5882;48.818;9.114;2023-03-01T12:14:34;10.48;;;6.63;;
11651;SDS011;5882;48.818;9.114;2023-03-01T12:17:20;11.38;;;6.25;;
11651;SDS011;5882;48.818;9.114;2023-03-01T12:19:57;13.00;;;6.07;;
11651;SDS011;5882;48.818;9.114;2023-03-01T12:22:34;9.10;;;6.25;;
11651;SDS011;5882;48.818;9.114;2023-03-01T12:28:21;9.75;;;5.57;;
11651;SDS011;5882;48.818;9.114;2023-03-01T12:30:55;8.52;;;5.60;;
11651;SDS011;5882;48.818;9.114;2023-03-01T12:33:28;10.68;;;6.82;;
11651;SDS011;5882;48.818;9.114;2023-03-01T12:36:03;12.20;;;6.82;;
11651;SDS011;5882;48.818;9.114;2023-03-01T12:38:37;9.80;;;6.55;;
11651;SDS011;5882;48.818;9.114;2023-03-01T12:44:01;10.73;;;6.13;;
11651;SDS011;5882;48.818;9.114;2023-03-01T12:46:35;9.95;;;6.15;;
11651;SDS011;5882;48.818;9.114;2023-03-01T12:49:10;7.95;;;5.78;;
11651;SDS011;5882;48.818;9.114;2023-03-01T12:51:39;9.57;;;6.05;;
11651;SDS011;5882;48.818;9.114;2023-03-01T12:54:11;10.10;;;6.75;;
11651;SDS011;5882;48.818;9.114;2023-03-01T12:56:40;10.10;;;6.53;;
11651;SDS011;5882;48.818;9.114;2023-03-01T12:59:15;10.05;;;6.93;;
11651;SDS011;5882;48.818;9.114;2023-03-01T13:01:47;10.55;;;6.25;;
11651;SDS011;5882;48.818;9.114;2023-03-01T13:04:16;11.13;;;6.15;;
11651;SDS011;5882;48.818;9.114;2023-03-01T13:06:47;9.43;;;7.03;;
11651;SDS011;5882;48.818;9.114;2023-03-01T13:09:20;10.35;;;6.68;;
11651;SDS011;5882;48.818;9.114;2023-03-01T13:11:53;9.30;;;5.72;;
11651;SDS011;5882;48.818;9.114;2023-03-01T13:15:13;11.65;;;7.00;;
11651;SDS011;5882;48.818;9.114;2023-03-01T13:17:40;8.00;;;6.25;;
11651;SDS011;5882;48.818;9.114;2023-03-01T13:20:14;10.27;;;5.75;;
11651;SDS011;5882;48.818;9.114;2023-03-01T13:22:44;9.98;;;6.68;;
11651;SDS011;5882;48.818;9.114;2023-03-01T13:25:14;10.73;;;6.63;;
11651;SDS011;5882;48.818;9.114;2023-03-01T13:27:42;10.27;;;6.22;;
11651;SDS011;5882;48.818;9.114;2023-03-01T13:33:14;9.98;;;6.15;;
11651;SDS011;5882;48.818;9.114;2023-03-01T13:36:01;7.25;;;5.90;;
11651;SDS011;5882;48.818;9.114;2023-03-01T13:38:38;9.23;;;6.55;;
11651;SDS011;5882;48.818;9.114;2023-03-01T13:41:08;9.07;;;6.63;;
11651;SDS011;5882;48.818;9.114;2023-03-01T13:43:40;9.55;;;6.35;;
11651;SDS011;5882;48.818;9.114;2023-03-01T13:46:10;10.05;;;6.93;;
11651;SDS011;5882;48.818;9.114;2023-03-01T13:48:38;10.95;;;7.70;;
11651;SDS011;5882;48.818;9.114;2023-03-01T13:51:09;8.45;;;6.53;;
11651;SDS011;5882;48.818;9.114;2023-03-01T13:53:36;9.85;;;6.65;;
11651;SDS011;5882;48.818;9.114;2023-03-01T13:56:10;10.98;;;6.45;;
11651;SDS011;5882;48.818;9.114;2023-03-01T13:58:46;10.15;;;6.75;;
11651;SDS011;5882;48.818;9.114;2023-03-01T14:01:26;9.40;;;6.63;;
11651;SDS011;5882;48.818;9.114;2023-03-01T14:03:53;8.88;;;5.90;;
11651;SDS011;5882;48.818;9.114;2023-03-01T14:06:23;9.90;;;6.20;;
11651;SDS011;5882;48.818;9.114;2023-03-01T14:09:00;9.68;;;6.22;;
11651;SDS011;5882;48.818;9.114;2023-03-01T14:11:37;12.80;;;6.35;;
11651;SDS011;5882;48.818;9.114;2023-03-01T14:14:14;11.90;;;7.05;;
11651;SDS011;5882;48.818;9.114;2023-03-01T14:16:46;11.60;;;6.93;;
11651;SDS011;5882;48.818;9.114;2023-03-01T14:19:16;10.95;;;6.15;;
11651;SDS011;5882;48.818;9.114;2023-03-01T14:22:18;12.30;;;7.18;;
11651;SDS011;5882;48.818;9.114;2023-03-01T14:24:58;10.13;;;6.65;;
11651;SDS011;5882;48.818;9.114;2023-03-01T14:27:28;11.38;;;7.05;;
11651;SDS011;5882;48.818;9.114;2023-03-01T14:29:57;8.88;;;6.55;;
11651;SDS011;5882;48.818;9.114;2023-03-01T14:32:24;10.73;;;7.07;;
11651;SDS011;5882;48.818;9.114;2023-03-01T14:34:51;9.98;;;7.00;;
11651;SDS011;5882;48.818;9.114;2023-03-01T14:37:24;9.18;;;6.40;;
11651;SDS011;5882;48.818;9.114;2023-03-01T14:40:01;10.18;;;6.63;;
11651;SDS011;5882;48.818;9.114;2023-03-01T14:42:31;11.60;;;6.70;;
11651;SDS011;5882;48.818;9.114;2023-03-01T14:45:00;10.32;;;7.32;;
11651;SDS011;5882;48.818;9.114;2023-03-01T14:47:28;12.10;;;6.45;;
11651;SDS011;5882;48.818;9.114;2023-03-01T14:49:58;11.52;;;6.55;;
11651;SDS011;5882;48.818;9.114;2023-03-01T14:52:28;11.80;;;7.68;;
11651;SDS011;5882;48.818;9.114;2023-03-01T14:54:59;9.82;;;6.90;;
11651;SDS011;5882;48.818;9.114;2023-03-01T14:57:26;10.80;;;6.15;;
11651;SDS011;5882;48.818;9.114;2023-03-01T14:59:59;10.50;;;6.95;;
11651;SDS011;5882;48.818;9.114;2023-03-01T15:02:32;14.98;;;7.43;;
11651;SDS011;5882;48.818;9.114;2023-03-01T15:05:00;9.95;;;6.57;;
11651;SDS011;5882;48.818;9.114;2023-03-01T15:07:30;13.45;;;6.80;;
11651;SDS011;5882;48.818;9.114;2023-03-01T15:09:57;12.30;;;6.85;;
11651;SDS011;5882;48.818;9.114;2023-03-01T15:18:02;10.23;;;6.68;;
11651;SDS011;5882;48.818;9.114;2023-03-01T15:20:29;11.73;;;6.13;;
11651;SDS011;5882;48.818;9.114;2023-03-01T15:23:00;14.32;;;7.72;;
11651;SDS011;5882;48.818;9.114;2023-03-01T15:25:28;8.95;;;7.10;;
11651;SDS011;5882;48.818;9.114;2023-03-01T15:27:56;10.05;;;6.63;;
11651;SDS011;5882;48.818;9.114;2023-03-01T15:30:26;12.35;;;7.30;;
11651;SDS011;5882;48.818;9.114;2023-03-01T15:35:46;10.05;;;6.20;;
11651;SDS011;5882;48.818;9.114;2023-03-01T15:38:24;11.38;;;6.82;;
11651;SDS011;5882;48.818;9.114;2023-03-01T15:41:00;9.27;;;6.53;;
11651;SDS011;5882;48.818;9.114;2023-03-01T15:43:37;13.90;;;7.40;;
11651;SDS011;5882;48.818;9.114;2023-03-01T15:46:20;10.85;;;6.78;;
11651;SDS011;5882;48.818;9.114;2023-03-01T15:48:56;11.93;;;6.97;;
11651;SDS011;5882;48.818;9.114;2023-03-01T15:51:38;9.75;;;6.43;;
11651;SDS011;5882;48.818;9.114;2023-03-01T15:54:18;9.75;;;6.78;;
11651;SDS011;5882;48.818;9.114;2023-03-01T15:56:49;10.70;;;6.28;;
11651;SDS011;5882;48.818;9.114;2023-03-01T15:59:22;11.05;;;6.88;;
11651;SDS011;5882;48.818;9.114;2023-03-01T16:01:48;11.20;;;6.57;;
11651;SDS011;5882;48.818;9.114;2023-03-01T16:04:17;12.43;;;7.40;;
11651;SDS011;5882;48.818;9.114;2023-03-01T16:06:50;10.48;;;7.28;;
11651;SDS011;5882;48.818;9.114;2023-03-01T16:09:23;12.60;;;6.45;;
11651;SDS011;5882;48.818;9.114;2023-03-01T16:11:58;9.68;;;6.43;;
11651;SDS011;5882;48.818;9.114;2023-03-01T16:14:25;10.20;;;6.72;;
11651;SDS011;5882;48.818;9.114;2023-03-01T16:16:52;12.50;;;7.80;;
11651;SDS011;5882;48.818;9.114;2023-03-01T16:19:18;13.48;;;7.18;;
11651;SDS011;5882;48.818;9.114;2023-03-01T16:21:45;8.20;;;5.93;;
11651;SDS011;5882;48.818;9.114;2023-03-01T16:24:15;9.88;;;6.80;;
11651;SDS011;5882;48.818;9.114;2023-03-01T16:27:18;9.82;;;6.47;;
11651;SDS011;5882;48.818;9.114;2023-03-01T16:29:40;9.75;;;6.70;;
11651;SDS011;5882;48.818;9.114;2023-03-01T16:32:13;9.63;;;6.93;;
11651;SDS011;5882;48.818;9.114;2023-03-01T16:34:56;8.95;;;6.10;;
11651;SDS011;5882;48.818;9.114;2023-03-01T16:37:28;12.65;;;6.63;;
11651;SDS011;5882;48.818;9.114;2023-03-01T16:40:00;9.50;;;7.05;;
11651;SDS011;5882;48.818;9.114;2023-03-01T16:42:30;10.20;;;6.82;;
11651;SDS011;5882;48.818;9.114;2023-03-01T16:45:02;10.95;;;5.95;;
11651;SDS011;5882;48.818;9.114;2023-03-01T16:47:29;10.80;;;6.38;;
11651;SDS011;5882;48.818;9.114;2023-03-01T16:49:56;8.68;;;6.20;;
11651;SDS011;5882;48.818;9.114;2023-03-01T16:52:30;12.30;;;6.70;;
11651;SDS011;5882;48.818;9.114;2023-03-01T16:54:57;12.13;;;6.68;;
11651;SDS011;5882;48.818;9.114;2023-03-01T16:57:25;9.25;;;5.95;;
11651;SDS011;5882;48.818;9.114;2023-03-01T16:59:54;10.60;;;6.47;;
11651;SDS011;5882;48.818;9.114;2023-03-01T17:02:26;9.88;;;6.80;;
11651;SDS011;5882;48.818;9.114;2023-03-01T17:04:54;9.93;;;6.65;;
11651;SDS011;5882;48.818;9.114;2023-03-01T17:07:21;11.23;;;6.60;;
11651;SDS011;5882;48.818;9.114;2023-03-01T17:09:54;10.85;;;6.90;;
11651;SDS011;5882;48.818;9.114;2023-03-01T17:12:29;8.90;;;5.90;;
11651;SDS011;5882;48.818;9.114;2023-03-01T17:14:57;13.25;;;6.70;;
11651;SDS011;5882;48.818;9.114;2023-03-01T17:17:36;10.82;;;6.38;;
11651;SDS011;5882;48.818;9.114;2023-03-01T17:20:16;11.05;;;6.13;;
11651;SDS011;5882;48.818;9.114;2023-03-01T17:22:52;9.73;;;6.70;;
11651;SDS011;5882;48.818;9.114;2023-03-01T17:25:21;9.27;;;6.05;;
11651;SDS011;5882;48.818;9.114;2023-03-01T17:27:53;10.00;;;6.95;;
11651;SDS011;5882;48.818;9.114;2023-03-01T17:30:22;10.63;;;6.60;;
11651;SDS011;5882;48.818;9.114;2023-03-01T17:32:49;12.43;;;6.40;;
11651;SDS011;5882;48.818;9.114;2023-03-01T17:35:27;9.32;;;6.50;;
11651;SDS011;5882;48.818;9.114;2023-03-01T17:38:03;11.13;;;6.35;;
11651;SDS011;5882;48.818;9.114;2023-03-01T17:40:30;13.68;;;7.03;;
11651;SDS011;5882;48.818;9.114;2023-03-01T17:42:59;11.07;;;7.28;;
11651;SDS011;5882;48.818;9.114;2023-03-01T17:45:25;11.32;;;6.78;;
11651;SDS011;5882;48.818;9.114;2023-03-01T17:47:52;10.98;;;5.95;;
11651;SDS011;5882;48.818;9.114;2023-03-01T17:50:19;8.93;;;6.32;;
11651;SDS011;5882;48.818;9.114;2023-03-01T17:52:46;9.88;;;6.47;;
11651;SDS011;5882;48.818;9.114;2023-03-01T17:55:14;11.82;;;6.88;;
11651;SDS011;5882;48.818;9.114;2023-03-01T17:57:41;11.73;;;7.10;;
11651;SDS011;5882;48.818;9.114;2023-03-01T18:00:13;12.02;;;7.20;;
11651;SDS011;5882;48.818;9.114;2023-03-01T18:02:40;10.63;;;6.28;;
11651;SDS011;5882;48.818;9.114;2023-03-01T18:05:12;9.75;;;6.65;;
11651;SDS011;5882;48.818;9.114;2023-03-01T18:07:41;9.57;;;6.07;;
11651;SDS011;5882;48.818;9.114;2023-03-01T18:10:09;11.55;;;7.78;;
11651;SDS011;5882;48.818;9.114;2023-03-01T18:12:35;10.68;;;6.97;;
11651;SDS011;5882;48.818;9.114;2023-03-01T18:15:02;14.13;;;7.65;;
11651;SDS011;5882;48.818;9.114;2023-03-01T18:17:34;12.63;;;7.55;;
11651;SDS011;5882;48.818;9.114;2023-03-01T18:20:05;12.27;;;7.47;;
11651;SDS011;5882;48.818;9.114;2023-03-01T18:22:32;11.70;;;6.95;;
11651;SDS011;5882;48.818;9.114;2023-03-01T18:24:59;12.05;;;7.88;;
11651;SDS011;5882;48.818;9.114;2023-03-01T18:27:32;11.07;;;7.18;;
11651;SDS011;5882;48.818;9.114;2023-03-01T18:30:04;9.82;;;6.45;;
11651;SDS011;5882;48.818;9.114;2023-03-01T18:32:43;11.55;;;7.15;;
11651;SDS011;5882;48.818;9.114;2023-03-01T18:35:13;10.43;;;6.60;;
11651;SDS011;5882;48.818;9.114;2023-03-01T18:37:39;12.63;;;7.28;;
11651;SDS011;5882;48.818;9.114;2023-03-01T18:40:15;10.60;;;7.05;;
11651;SDS011;5882;48.818;9.114;2023-03-01T18:42:46;12.15;;;7.05;;
11651;SDS011;5882;48.818;9.114;2023-03-01T18:45:13;11.25;;;6.60;;
11651;SDS011;5882;48.818;9.114;2023-03-01T18:47:48;10.95;;;6.68;;
11651;SDS011;5882;48.818;9.114;2023-03-01T18:50:24;12.23;;;7.53;;
11651;SDS011;5882;48.818;9.114;2023-03-01T18:52:51;9.52;;;6.88;;
11651;SDS011;5882;48.818;9.114;2023-03-01T18:55:19;12.38;;;8.07;;
11651;SDS011;5882;48.818;9.114;2023-03-01T18:57:52;10.57;;;6.80;;
11651;SDS011;5882;48.818;9.114;2023-03-01T19:00:27;11.23;;;6.82;;
11651;SDS011;5882;48.818;9.114;2023-03-01T19:03:03;12.68;;;6.55;;
11651;SDS011;5882;48.818;9.114;2023-03-01T19:05:31;10.77;;;7.40;;
11651;SDS011;5882;48.818;9.114;2023-03-01T19:07:59;13.02;;;6.93;;
11651;SDS011;5882;48.818;9.114;2023-03-01T19:10:33;13.00;;;7.45;;
11651;SDS011;5882;48.818;9.114;2023-03-01T19:13:00;27.90;;;14.52;;
11651;SDS011;5882;48.818;9.114;2023-03-01T19:15:31;20.60;;;10.32;;
11651;SDS011;5882;48.818;9.114;2023-03-01T19:17:58;14.80;;;8.65;;